WetterOnline ( https://www.wetteronline.de )

Wetter aktuell Kratzerhöfle

Aktuelles Wetter: Geislingen/Stötten (737m)

6-stündlich | Neueste Meldungen
Ortszeit Temperatur Wetter
So, 26.05. 14:00 19.7° C leicht bewölkt
So, 26.05. 8:00 15.1° C leicht bewölkt
So, 26.05. 2:00 10.9° C wolkenlos
Sa, 25.05. 20:00 14.1° C bedeckt
Sa, 25.05. 14:00 15.5° C bewölkt
Sa, 25.05. 8:00 11.1° C wolkenlos
Sa, 25.05. 2:00 9.2° C wolkig
Fr, 24.05. 20:00 12.7° C wolkig
Ortszeit Temperatur Wetter
So, 26.05. 17:30 20.2° C bedeckt
So, 26.05. 17:20 20.2° C bedeckt
So, 26.05. 17:10 20.0° C bedeckt
So, 26.05. 17:00 19.5° C wolkig
So, 26.05. 16:50 19.5° C wolkig
So, 26.05. 16:40 19.4° C bedeckt
So, 26.05. 16:30 19.9° C wolkig
So, 26.05. 16:00 20.1° C wolkig
So, 26.05. 15:30 19.7° C wolkig
So, 26.05. 15:00 19.7° C wolkig
So, 26.05. 14:30 19.6° C leicht bewölkt
Ortszeit Relative Feuchte Sichtweite
So, 26.05. 14:00 51% 65 km
So, 26.05. 8:00 59% 60 km
So, 26.05. 2:00 88% 55 km
Sa, 25.05. 20:00 71% >70 km
Sa, 25.05. 14:00 71% 65 km
Sa, 25.05. 8:00 82% 65 km
Sa, 25.05. 2:00 90% 60 km
Fr, 24.05. 20:00 83% 60 km
Ortszeit Relative Feuchte Sichtweite
So, 26.05. 17:30 46% >70 km
So, 26.05. 17:20 46% -
So, 26.05. 17:10 47% -
So, 26.05. 17:00 47% >70 km
So, 26.05. 16:50 47% -
So, 26.05. 16:40 48% -
So, 26.05. 16:30 47% >70 km
So, 26.05. 16:00 52% 60 km
So, 26.05. 15:30 47% 30 km
So, 26.05. 15:00 50% 50 km
So, 26.05. 14:30 52% >70 km
Ortszeit Niederschlagsmenge Niederschlagsart
So, 26.05. 14:00 0.0 l/m2 in 6 Std. -
So, 26.05. 8:00 0.0 l/m2 in 12 Std. -
So, 26.05. 2:00 0.0 l/m2 in 6 Std. -
Sa, 25.05. 20:00 0.1 l/m2 in 12 Std. Regen
Sa, 25.05. 14:00 0.0 l/m2 in 6 Std. -
Sa, 25.05. 8:00 0.1 l/m2 in 12 Std. -
Sa, 25.05. 2:00 0.1 l/m2 in 6 Std. Regen
Fr, 24.05. 20:00 0.1 l/m2 in 12 Std. Regen
Ortszeit Niederschlagsmenge Niederschlagsart
So, 26.05. 17:30 0.0 l/m2 in 30 Min -
So, 26.05. 17:20 keine Meldung -
So, 26.05. 17:10 keine Meldung -
So, 26.05. 17:00 0.0 l/m2 in 1 Std. -
So, 26.05. 16:50 keine Meldung -
So, 26.05. 16:40 keine Meldung -
So, 26.05. 16:30 0.0 l/m2 in 30 Min -
So, 26.05. 16:00 0.0 l/m2 in 1 Std. -
So, 26.05. 15:30 0.0 l/m2 in 30 Min -
So, 26.05. 15:00 0.0 l/m2 in 1 Std. -
So, 26.05. 14:30 0.0 l/m2 in 30 Min -
Ortszeit Stärke Spitze Richtung
km/h Bft. km/h Grad Sektor
So, 26.05. 14:00 11 2 22 190° S
So, 26.05. 8:00 7 2 14 190° S
So, 26.05. 2:00 9 2 19 150° SO
Sa, 25.05. 20:00 7 2 24 160° S
Sa, 25.05. 14:00 7 2 18 100° O
Sa, 25.05. 8:00 6 1 11 280° W
Sa, 25.05. 2:00 7 2 32 200° S
Fr, 24.05. 20:00 26 4 41 270° W
Ortszeit Stärke Spitze Richtung
km/h Bft. km/h Grad Sektor
So, 26.05. 17:30 13 3 19 210° SW
So, 26.05. 17:20 13 3 - 210° SW
So, 26.05. 17:10 7 2 - 200° S
So, 26.05. 17:00 7 2 25 180° S
So, 26.05. 16:50 7 2 - 180° S
So, 26.05. 16:40 11 2 - 200° S
So, 26.05. 16:30 11 2 25 210° SW
So, 26.05. 16:00 13 3 22 200° S
So, 26.05. 15:30 9 2 22 200° S
So, 26.05. 15:00 9 2 24 140° SO
So, 26.05. 14:30 9 2 22 160° S
Ortszeit Untergrenze Bedeckung Gattung
total tief tief mittel hoch
So, 26.05. 14:00 1350 m 5/8 1/8 - - -
So, 26.05. 8:00 6900 m 3/8 3/8 - - -
So, 26.05. 2:00 - 0/8 0/8 - - -
Sa, 25.05. 20:00 1380 m 8/8 8/8 - - -
Sa, 25.05. 14:00 600 m 8/8 7/8 - - -
Sa, 25.05. 8:00 - 0/8 0/8 - - -
Sa, 25.05. 2:00 2100 m 7/8 2/8 - - -
Fr, 24.05. 20:00 420 m 6/8 5/8 - - -
Ortszeit Bedeckungsgrad in Achtel und Wolkenuntergrenze
So, 26.05. 17:30 7(4500m) 8(5400m)
So, 26.05. 17:20 7(4500m) 8(5400m)
So, 26.05. 17:10 8
So, 26.05. 17:00 3(1500m) 8(4200m)
So, 26.05. 16:50 3(1500m) 8(4200m)
So, 26.05. 16:40 8
So, 26.05. 16:30 1(1500m) 8(4200m) 8(6300m)
So, 26.05. 16:00 2(1500m) 8(3900m) 8(6000m)
So, 26.05. 15:30 2(1440m) 8(3900m) 8(6000m)
So, 26.05. 15:00 4(1380m) 6(6900m) 7(7500m)
So, 26.05. 14:30 2(1350m) 4(7200m)
Ortszeit Luftdruck NN (hPa) Tendenz (hPa in 3 Std.)
So, 26.05. 14:00 1017 0,0
So, 26.05. 8:00 1018 + 0,4
So, 26.05. 2:00 1019 0,0
Sa, 25.05. 20:00 1017 + 0,5
Sa, 25.05. 14:00 1017 - 0,2
Sa, 25.05. 8:00 1018 + 0,4
Sa, 25.05. 2:00 1019 - 0,3
Fr, 24.05. 20:00 1017 + 0,4
Ortszeit Luftdruck NN (hPa) Tendenz (hPa in 3 Std.)
So, 26.05. 17:30 1016 - 0,5
So, 26.05. 17:20 1016 keine Meldung
So, 26.05. 17:10 1016 keine Meldung
So, 26.05. 17:00 1016 - 0,8
So, 26.05. 16:50 1016 keine Meldung
So, 26.05. 16:40 1016 keine Meldung
So, 26.05. 16:30 1016 - 0,9
So, 26.05. 16:00 1016 - 0,6
So, 26.05. 15:30 1016 - 0,5
So, 26.05. 15:00 1016 - 0,5
So, 26.05. 14:30 1017 - 0,3
Ortszeit Schneehöhe (cm)
So, 26.05. 14:00 0
So, 26.05. 8:00 0
So, 26.05. 2:00 0
Sa, 25.05. 20:00 0
Sa, 25.05. 14:00 0
Sa, 25.05. 8:00 0
Sa, 25.05. 2:00 0
Fr, 24.05. 20:00 0
Ortszeit Schneehöhe (cm)
So, 26.05. 17:30 0
So, 26.05. 17:20 0
So, 26.05. 17:10 -
So, 26.05. 17:00 0
So, 26.05. 16:50 0
So, 26.05. 16:40 -
So, 26.05. 16:30 0
So, 26.05. 16:00 0
So, 26.05. 15:30 0
So, 26.05. 15:00 0
So, 26.05. 14:30 0
Link zu dieser Seite / Seite empfehlen

Das Wetter in ...